LIMELIPO

Guest
Details From LIME - Bergamo Orio Al Serio
To LIPO - Montichiari
Flight Number -
Tags generated
Created
Modified
Stats Distance 30 nm / 56 km
Max Altitude 1,000 ft / 305 m
Waypoints 3
Social Downloads 3
Likes 0
Share VATSIM

Download

Looking for another format? Having issues loading an existing format? Contact us
Advertisement - Login to hide

Notes

Basic altitude profile: - Ascent Rate: 2500ft/min - Ascent Speed: 250kts - Cruise Altitude: 35000ft - Cruise Speed: 420kts - Descent Rate: 1500ft/min - Descent Speed: 250kts

Route

LIME LEGLO LIPO

ID Type Via Altitude Latitude Longitude Leg Dist Tot Dist Heading (true) Name
O LIME APT - 0 ft / 0 m 45.67200˚ 9.70689˚ - 0 nm - Bergamo Orio Al Serio
LEGLO FIX - 1,000 ft / 305 m 45.65028˚ 9.76944˚ 2 nm 2 nm 116° / 116° -
O LIPO APT - 0 ft / 0 m 45.42855˚ 10.33128˚ 27 nm 30 nm 119° / 120° Montichiari

Altitude Profile

Advertisement - Login to hide

LIME

Details ICAO LIME (BGY)
Name Bergamo Orio Al Serio
Region Italy
Timezone Europe/Rome (UTC+1.0)
Stats Elevation 779 ft / 237 m (AMSL)
Location 45.672004° 9.706892°
Runways 2
Magnetic Variation 2.603° E

METAR

LIME 140950Z 19003KT 130V220 4000 BR BKN040 05/03 Q1009 NOSIG

Decode

TAF

TAF LIME 140500Z 1406/1506 VRB05KT 7000 SCT050 TEMPO 1406/1407 0800 BCFG BKN010

Decode

Departure Runways

ID Width Length Bearing (true) Bearing (mag) Surface Threshold Offset Overrun Length
10 148 ft / 45 m 9,897 ft / 3,017 m 104.89° 102.29° Asphalt 312 ft / 95 m 0 ft / 0 m
12 59 ft / 18 m 2,665 ft / 812 m 121.47° 118.87° Asphalt 197 ft / 60 m 0 ft / 0 m
28 148 ft / 45 m 9,897 ft / 3,017 m 284.91° 282.31° Asphalt 712 ft / 217 m 0 ft / 0 m
30 59 ft / 18 m 2,665 ft / 812 m 301.48° 298.88° Asphalt 312 ft / 95 m 0 ft / 0 m

LIPO

Details ICAO LIPO (VBS)
Name Montichiari
Region Italy
Timezone Europe/Rome (UTC+1.0)
Stats Elevation 344 ft / 105 m (AMSL)
Location 45.428548° 10.331283°
Runways 1
Magnetic Variation 2.738° E

METAR

LIPO 140950Z 27005KT 1200 R32/2000 BR OVC004 03/03 Q1009

Decode

TAF

TAF LIPO 140500Z 1406/1506 VRB05KT 1500 BR SCT050 TEMPO 1406/1408 0600 FG BKN003 BECMG 1408/1411 6000

Decode

Destination Runways

ID Width Length Bearing (true) Bearing (mag) Surface Threshold Offset Overrun Length
14 154 ft / 47 m 9,821 ft / 2,993 m 134.99° 132.25° Asphalt 984 ft / 300 m 0 ft / 0 m
32 154 ft / 47 m 9,821 ft / 2,993 m 315.01° 312.27° Asphalt 623 ft / 190 m 0 ft / 0 m

Approach Navaids

Runway Type Ident Frequency Range Bearing (true) Bearing (mag) Slope Elevation
32 Localiser IBS 110.55 MHz 18 nm / 33 km 315.02° 312.29° - 356 ft / 109 m (AMSL)
32 Glidescope IBS 110.55 MHz 10 nm / 19 km 315.00° 312.26° 3.00° 356 ft / 109 m (AMSL)
32 DME IBS 110.55 MHz 25 nm / 46 km - - - 356 ft / 109 m (AMSL)

Popular Alternatives